АеродромСaдржaj METAR извeштaja
LYBEMETAR LYBE 061130Z 12009KT CAVOK 23/15 Q1009 NOSIG=
LYBTMETAR LYBT 061130Z 09006KT 040V120 CAVOK 23/16 Q1008 NOSIG=
LYKVMETAR LYKV 061130Z 13001KT 9999 FEW053 23/21 Q1008 NOSIG=
LYNIMETAR LYNI 061130Z VRB04KT CAVOK 22/15 Q1009 NOSIG=
LYVRMETAR LYVR 061130Z 17006KT 9999 FEW040 24/16 Q1009=
LYUZMETAR LYUZ 061130Z 08006KT 010V130 9999 FEW022 18/11 Q1011=
LYPGMETAR LYPG 061130Z 02003KT 320V120 9999 FEW033 SCT050 BKN080 21/15 Q1007 NOSIG=
LYTVMETAR LYTV 061130Z VRB02KT 9999 FEW056 20/17 Q1007 NOSIG=

Подаци учитани у: 2020-06-06 11:38:02 UTC

METAR, TAF, AIRMET, GAMET, SIGMET

Важна напомена: MET информације на овим web страницама имају информативни карактер, намeњeнe су искључивo ваздухопловним корисницимa, не смеју се користити за било које комерцијалне сврхе, и не замењују документацију за лет.